Jersey Village, Texas
Current Conditions -  °F | °C
As of 6:15 PM on Friday 21 Nov 2014 (Local Time) from KMCJ Reporting Station
Overcast Overcast  
Wind Chill: 64°   Ceiling: 4000
Heat Index: 64°   Visibility: 10mi
Dew Point: 63°   Wind: 21mph
Humidity: 94%   Direction: 100°E
Pressure: 30.07"   Gusts: 25mph
Location:  29.8565°N, 95.5841°W
Report Text: KMCJ 220015Z AUTO 10018G22KT 10SM OVC040 18/17 A3007 RMK AO1
Loading
Personal Weather Stations






























Interactive Weather Map New forecast layout! Learn more

10-Day Weather Forecast

Advertisements
Track Severe Weather on mobile